Decoded Metar for KJQF (CONCORD REG ARPT in NC, USA) (IATA:JQF) | Meteo·Mobile Aviation Weather
aviador You're here:

KJQF Decoded Metar

CONCORD REG ARPT in NC, USA
Report Time2019-02-22 03:50:00
UTC Time2019-02-22 04:29:10
Flight Rules mvfr MVFR
WindCalm
Visibility6437 m
Phenomena:Heavy Rain
Clouds:Broken 016 Hf
Broken 022 Hf
Overcast 031 Hf
Expected CloudBase > 400 ft AGL from Temp-Dew spread
Ceiling1,600 ft
Temp14°C (ISA 0)
Dew Point13°C (94% RH)
QNH1022 hPa
Density Alt633 ft
Elevation689 ft
Report Wrong Elevation
Raw Report
METAR KJQF 220350Z 00000KT 4SM +RA BR BKN016 BKN022 OVC031 14/13 A3018=

Extra information for KJQF:More info

Metar Taf Metar & Taf Last 4 Metars F.Rules Stats Wind Profile Meteogram Temp Stats Airport Information Weather charts Add Link Nearby VenuesMetar ALERT Operation Metar Decoded Social comments

AIRNAV info for KJQF